Time;durP1;ratioP1;P1;durP2;ratioP2;P2;SDS_P1;SDS_P2;PMS_P1;PMS_P2;Temp;Humidity;BMP_temperature;BMP_pressure;BME280_temperature;BME280_humidity;BME280_pressure;Samples;Min_cycle;Max_cycle;Signal;HPM_P1;HPM_P2
2023/08/03 00:00:05;;;;;;;7.90;2.77;;;;;;;;;;5034607;28;20521;-76
2023/08/03 00:02:34;;;;;;;5.53;2.10;;;;;;;;;;5034581;28;20472;-76
2023/08/03 00:05:01;;;;;;;5.70;2.50;;;;;;;;;;5034246;28;20545;-77
2023/08/03 00:07:30;;;;;;;2.37;1.87;;;;;;;;;;5034042;28;20454;-77
2023/08/03 00:09:57;;;;;;;3.77;2.03;;;;;;;;;;5034145;28;20443;-77
2023/08/03 00:12:24;;;;;;;4.03;1.90;;;;;;;;;;5034297;28;20482;-77
2023/08/03 00:14:51;;;;;;;7.10;2.10;;;;;;;;;;5034677;28;20779;-77
2023/08/03 00:17:18;;;;;;;5.07;2.10;;;;;;;;;;5034107;28;20444;-77
2023/08/03 00:19:46;;;;;;;4.47;2.40;;;;;;;;;;5034220;28;20444;-77
2023/08/03 00:22:13;;;;;;;3.10;1.97;;;;;;;;;;5033709;28;20962;-77
2023/08/03 00:24:41;;;;;;;6.47;2.07;;;;;;;;;;5033810;28;20478;-77
2023/08/03 00:27:09;;;;;;;4.30;1.77;;;;;;;;;;5034257;28;20450;-77
2023/08/03 00:29:36;;;;;;;5.27;2.13;;;;;;;;;;5034356;28;20446;-77
2023/08/03 00:32:04;;;;;;;8.80;2.60;;;;;;;;;;5033914;28;20557;-77
2023/08/03 00:34:31;;;;;;;3.37;2.10;;;;;;;;;;5033575;28;20478;-76
2023/08/03 00:36:58;;;;;;;5.53;2.00;;;;;;;;;;5033848;28;20448;-78
2023/08/03 00:39:26;;;;;;;7.37;1.60;;;;;;;;;;5033975;28;20441;-78
2023/08/03 00:41:54;;;;;;;5.73;2.83;;;;;;;;;;5033748;28;20777;-78
2023/08/03 00:44:21;;;;;;;2.37;1.80;;;;;;;;;;5033121;28;20453;-78
2023/08/03 00:46:49;;;;;;;6.03;1.93;;;;;;;;;;5034058;28;20467;-77
2023/08/03 00:49:16;;;;;;;3.00;1.80;;;;;;;;;;5033607;28;20527;-78
2023/08/03 00:51:43;;;;;;;4.30;2.17;;;;;;;;;;5033440;28;20860;-77
2023/08/03 00:54:10;;;;;;;2.77;1.37;;;;;;;;;;5033478;28;20540;-78
2023/08/03 00:56:38;;;;;;;6.70;2.63;;;;;;;;;;5033701;28;20461;-77
2023/08/03 00:59:07;;;;;;;4.10;2.00;;;;;;;;;;5033719;28;20489;-78
2023/08/03 01:01:34;;;;;;;8.63;2.10;;;;;;;;;;5033564;28;20441;-77
2023/08/03 01:04:02;;;;;;;4.50;2.00;;;;;;;;;;5033157;28;20951;-78
2023/08/03 01:06:29;;;;;;;4.60;1.90;;;;;;;;;;5034121;28;20532;-79
2023/08/03 01:08:59;;;;;;;5.43;2.43;;;;;;;;;;5033474;28;20440;-80
2023/08/03 01:11:26;;;;;;;3.63;2.00;;;;;;;;;;5033772;28;20500;-79
2023/08/03 01:13:54;;;;;;;2.73;2.00;;;;;;;;;;5032856;28;20905;-79
2023/08/03 01:16:23;;;;;;;3.37;2.00;;;;;;;;;;5032950;28;20470;-78
2023/08/03 01:18:50;;;;;;;5.10;1.80;;;;;;;;;;5033368;28;20435;-79
2023/08/03 01:21:20;;;;;;;1.90;1.73;;;;;;;;;;5032938;28;20869;-79
2023/08/03 01:23:49;;;;;;;2.27;2.07;;;;;;;;;;5032880;28;20446;-77
2023/08/03 01:26:16;;;;;;;4.13;2.23;;;;;;;;;;5032975;28;20470;-78
2023/08/03 01:28:43;;;;;;;2.27;2.03;;;;;;;;;;5032965;28;20911;-79
2023/08/03 01:31:11;;;;;;;3.00;2.43;;;;;;;;;;5033371;28;20438;-78
2023/08/03 01:33:38;;;;;;;6.03;1.97;;;;;;;;;;5033379;28;20948;-79
2023/08/03 01:36:06;;;;;;;6.50;2.00;;;;;;;;;;5033308;28;20568;-78
2023/08/03 01:38:33;;;;;;;3.63;2.17;;;;;;;;;;5032992;28;20445;-77
2023/08/03 01:41:01;;;;;;;5.73;2.20;;;;;;;;;;5032667;28;21029;-77
2023/08/03 01:43:29;;;;;;;2.10;1.87;;;;;;;;;;5032894;28;20464;-76
2023/08/03 01:45:56;;;;;;;3.90;2.17;;;;;;;;;;5033245;28;20531;-74
2023/08/03 01:48:23;;;;;;;2.30;2.10;;;;;;;;;;5032868;28;20452;-72
2023/08/03 01:50:50;;;;;;;8.43;2.40;;;;;;;;;;5032430;28;20455;-73
2023/08/03 01:53:18;;;;;;;2.60;2.40;;;;;;;;;;5032631;28;20917;-72
2023/08/03 01:55:46;;;;;;;4.87;2.20;;;;;;;;;;5032525;28;20499;-73
2023/08/03 01:58:15;;;;;;;2.43;2.23;;;;;;;;;;5032742;28;20438;-73
2023/08/03 02:00:43;;;;;;;2.60;2.40;;;;;;;;;;5032434;28;20953;-73
2023/08/03 02:03:10;;;;;;;2.80;2.47;;;;;;;;;;5032719;28;20479;-73
2023/08/03 02:05:37;;;;;;;2.57;2.37;;;;;;;;;;5032706;28;20532;-73
2023/08/03 02:08:04;;;;;;;2.53;2.33;;;;;;;;;;5032529;28;20448;-74
2023/08/03 02:10:32;;;;;;;3.50;3.20;;;;;;;;;;5032654;28;20453;-74
2023/08/03 02:12:59;;;;;;;2.87;2.67;;;;;;;;;;5032514;28;20448;-74
2023/08/03 02:15:27;;;;;;;6.27;2.23;;;;;;;;;;5032438;28;20485;-74
2023/08/03 02:17:55;;;;;;;2.70;2.50;;;;;;;;;;5032476;28;20453;-74
2023/08/03 02:20:22;;;;;;;2.60;2.50;;;;;;;;;;5032160;28;20536;-73
2023/08/03 02:22:49;;;;;;;3.77;2.60;;;;;;;;;;5032481;28;20932;-74
2023/08/03 02:25:16;;;;;;;2.80;2.60;;;;;;;;;;5032281;28;20470;-73
2023/08/03 02:27:44;;;;;;;4.73;3.43;;;;;;;;;;5032801;28;20474;-73
2023/08/03 02:30:11;;;;;;;4.00;3.17;;;;;;;;;;5032420;28;20451;-73
2023/08/03 02:32:40;;;;;;;4.70;2.93;;;;;;;;;;5032265;28;20784;-73
2023/08/03 02:35:08;;;;;;;4.93;3.03;;;;;;;;;;5032472;28;20474;-73
2023/08/03 02:37:35;;;;;;;3.70;3.40;;;;;;;;;;5032005;28;20470;-73
2023/08/03 02:40:02;;;;;;;7.90;3.60;;;;;;;;;;5032309;28;20446;-73
2023/08/03 02:42:30;;;;;;;5.43;3.77;;;;;;;;;;5032362;28;20529;-73
2023/08/03 02:44:57;;;;;;;4.37;3.97;;;;;;;;;;5032050;28;20443;-73
2023/08/03 02:47:24;;;;;;;5.13;3.70;;;;;;;;;;5032092;28;20449;-73
2023/08/03 02:49:53;;;;;;;6.03;4.00;;;;;;;;;;5031791;28;20893;-73
2023/08/03 02:52:20;;;;;;;4.20;3.80;;;;;;;;;;5032261;28;20448;-73
2023/08/03 02:54:47;;;;;;;4.27;3.90;;;;;;;;;;5032024;28;20443;-73
2023/08/03 02:57:14;;;;;;;3.70;3.40;;;;;;;;;;5032437;28;20912;-72
2023/08/03 02:59:41;;;;;;;5.73;3.30;;;;;;;;;;5032028;28;20863;-72
2023/08/03 03:02:09;;;;;;;3.03;2.73;;;;;;;;;;5031851;28;20464;-73
2023/08/03 03:04:36;;;;;;;4.10;2.90;;;;;;;;;;5032324;28;20445;-73
2023/08/03 03:07:05;;;;;;;3.80;3.37;;;;;;;;;;5034038;28;20537;-73
2023/08/03 03:09:33;;;;;;;3.80;3.40;;;;;;;;;;5035853;28;20445;-73
2023/08/03 03:12:00;;;;;;;3.60;3.30;;;;;;;;;;5035627;28;20531;-73
2023/08/03 03:14:27;;;;;;;4.20;3.80;;;;;;;;;;5035770;28;20458;-73
2023/08/03 03:16:54;;;;;;;4.10;3.80;;;;;;;;;;5035560;28;20512;-73
2023/08/03 03:19:21;;;;;;;8.03;4.70;;;;;;;;;;5035231;28;20448;-72
2023/08/03 03:21:49;;;;;;;12.57;4.90;;;;;;;;;;5035257;28;20480;-73
2023/08/03 03:24:17;;;;;;;7.53;4.10;;;;;;;;;;5035087;28;20452;-73
2023/08/03 03:26:45;;;;;;;5.67;4.97;;;;;;;;;;5034941;28;20487;-74
2023/08/03 03:29:13;;;;;;;6.03;5.53;;;;;;;;;;5035602;28;20442;-75
2023/08/03 03:31:41;;;;;;;6.17;5.57;;;;;;;;;;5035123;28;20448;-73
2023/08/03 03:34:08;;;;;;;5.37;4.87;;;;;;;;;;5035198;28;20438;-74
2023/08/03 03:36:36;;;;;;;6.00;5.10;;;;;;;;;;5034905;28;20987;-74
2023/08/03 03:39:03;;;;;;;7.10;4.70;;;;;;;;;;5035277;28;20456;-75
2023/08/03 03:41:32;;;;;;;10.67;5.27;;;;;;;;;;5034894;28;20526;-74
2023/08/03 03:43:59;;;;;;;7.67;4.93;;;;;;;;;;5035098;28;20436;-73
2023/08/03 03:46:26;;;;;;;5.37;4.83;;;;;;;;;;5035137;28;20557;-74
2023/08/03 03:48:54;;;;;;;6.27;4.10;;;;;;;;;;5034547;28;20445;-74
2023/08/03 03:51:21;;;;;;;7.40;4.73;;;;;;;;;;5034909;28;20441;-73
2023/08/03 03:53:49;;;;;;;7.70;4.60;;;;;;;;;;5034741;28;20444;-74
2023/08/03 03:56:16;;;;;;;5.43;4.50;;;;;;;;;;5034362;28;20481;-73
2023/08/03 03:58:45;;;;;;;4.27;3.97;;;;;;;;;;5021666;28;20466;-74
2023/08/03 04:01:12;;;;;;;5.50;4.07;;;;;;;;;;5013946;28;20528;-73
2023/08/03 04:03:39;;;;;;;5.53;4.60;;;;;;;;;;5013816;28;20451;-73
2023/08/03 04:06:06;;;;;;;7.10;5.20;;;;;;;;;;5013840;28;20446;-73
2023/08/03 04:08:34;;;;;;;6.43;5.83;;;;;;;;;;5014253;28;20740;-73
2023/08/03 04:11:01;;;;;;;7.30;6.00;;;;;;;;;;5013958;28;20808;-73
2023/08/03 04:13:28;;;;;;;16.57;7.70;;;;;;;;;;5014535;28;20777;-72
2023/08/03 04:15:57;;;;;;;7.93;6.37;;;;;;;;;;5013699;28;20517;-73
2023/08/03 04:18:24;;;;;;;10.30;6.83;;;;;;;;;;5012978;28;20881;-72
2023/08/03 04:20:51;;;;;;;8.97;6.27;;;;;;;;;;5014114;28;20482;-73
2023/08/03 04:23:18;;;;;;;11.03;6.80;;;;;;;;;;5014330;28;20811;-73
2023/08/03 04:25:45;;;;;;;10.83;6.73;;;;;;;;;;5013893;28;20579;-73
2023/08/03 04:28:13;;;;;;;11.40;6.73;;;;;;;;;;5013875;28;20958;-73
2023/08/03 04:30:40;;;;;;;12.73;6.83;;;;;;;;;;5013666;28;20436;-74
2023/08/03 04:33:09;;;;;;;7.80;5.93;;;;;;;;;;5014055;28;20969;-73
2023/08/03 04:35:37;;;;;;;10.10;6.10;;;;;;;;;;5013726;28;20485;-73
2023/08/03 04:38:04;;;;;;;10.40;6.20;;;;;;;;;;5013562;28;20522;-73
2023/08/03 04:40:31;;;;;;;8.33;5.50;;;;;;;;;;5013658;28;20900;-74
2023/08/03 04:42:58;;;;;;;12.20;5.90;;;;;;;;;;5014351;28;20525;-73
2023/08/03 04:45:25;;;;;;;8.30;6.00;;;;;;;;;;5013716;28;20537;-73
2023/08/03 04:47:52;;;;;;;7.30;4.97;;;;;;;;;;5013602;28;20907;-73
2023/08/03 04:50:22;;;;;;;9.40;5.43;;;;;;;;;;5013544;28;20549;-74
2023/08/03 04:52:49;;;;;;;8.43;5.00;;;;;;;;;;5013634;28;20453;-73
2023/08/03 04:55:16;;;;;;;7.30;4.90;;;;;;;;;;5013328;28;20469;-74
2023/08/03 04:57:43;;;;;;;11.70;5.53;;;;;;;;;;5012997;28;20449;-74
2023/08/03 05:00:11;;;;;;;11.60;4.60;;;;;;;;;;5013131;28;20516;-73
2023/08/03 05:02:38;;;;;;;12.00;5.17;;;;;;;;;;5014135;28;20855;-76
2023/08/03 05:05:06;;;;;;;14.63;4.17;;;;;;;;;;5013659;28;20521;-72
2023/08/03 05:07:34;;;;;;;10.73;4.63;;;;;;;;;;5013503;28;20915;-71
2023/08/03 05:10:02;;;;;;;8.77;4.50;;;;;;;;;;5013591;28;20439;-74
2023/08/03 05:12:29;;;;;;;9.43;4.23;;;;;;;;;;5013866;28;20836;-72
2023/08/03 05:14:56;;;;;;;5.83;5.27;;;;;;;;;;5013768;28;20451;-70
2023/08/03 05:17:23;;;;;;;10.50;4.60;;;;;;;;;;5013337;28;20536;-72
2023/08/03 05:19:50;;;;;;;6.93;5.03;;;;;;;;;;5013120;28;20457;-72
2023/08/03 05:22:18;;;;;;;10.33;4.33;;;;;;;;;;5013592;28;20533;-70
2023/08/03 05:24:46;;;;;;;8.53;4.90;;;;;;;;;;5013423;28;20471;-71
2023/08/03 05:27:13;;;;;;;9.63;4.93;;;;;;;;;;5013455;28;20450;-71
2023/08/03 05:29:43;;;;;;;11.10;4.73;;;;;;;;;;5012780;28;20442;-70
2023/08/03 05:32:11;;;;;;;12.20;4.77;;;;;;;;;;5012992;28;20438;-71
2023/08/03 05:34:38;;;;;;;4.90;4.40;;;;;;;;;;5013123;28;20445;-72
2023/08/03 05:37:05;;;;;;;8.27;4.77;;;;;;;;;;5012967;28;20466;-72
2023/08/03 05:39:33;;;;;;;7.10;4.10;;;;;;;;;;5013432;28;20477;-72
2023/08/03 05:42:02;;;;;;;14.33;4.93;;;;;;;;;;5013734;28;20445;-72
2023/08/03 05:44:29;;;;;;;6.77;4.30;;;;;;;;;;5013248;28;20791;-72
2023/08/03 05:46:56;;;;;;;5.40;3.53;;;;;;;;;;5013405;28;20454;-73
2023/08/03 05:49:26;;;;;;;7.10;4.77;;;;;;;;;;5012912;28;20965;-73
2023/08/03 05:51:53;;;;;;;5.47;3.67;;;;;;;;;;5013463;28;20463;-72
2023/08/03 05:54:20;;;;;;;7.73;4.47;;;;;;;;;;5012836;28;20441;-72
2023/08/03 05:56:48;;;;;;;7.10;3.73;;;;;;;;;;5012791;28;20584;-72
2023/08/03 05:59:18;;;;;;;6.20;4.53;;;;;;;;;;5012878;28;20527;-72
2023/08/03 06:01:45;;;;;;;8.17;3.90;;;;;;;;;;5013086;28;20819;-71
2023/08/03 06:04:13;;;;;;;6.00;3.93;;;;;;;;;;5013165;28;20547;-72
2023/08/03 06:06:40;;;;;;;5.67;3.87;;;;;;;;;;5012788;28;20951;-71
2023/08/03 06:09:08;;;;;;;4.83;4.47;;;;;;;;;;5013104;28;20524;-71
2023/08/03 06:11:35;;;;;;;5.30;3.87;;;;;;;;;;5013470;28;20480;-72
2023/08/03 06:14:02;;;;;;;9.13;4.97;;;;;;;;;;5013012;28;20446;-72
2023/08/03 06:16:31;;;;;;;5.90;4.30;;;;;;;;;;5012404;28;20481;-72
2023/08/03 06:18:59;;;;;;;7.67;4.90;;;;;;;;;;5012402;28;20442;-72
2023/08/03 06:21:27;;;;;;;8.53;3.93;;;;;;;;;;5012883;28;20445;-72
2023/08/03 06:23:57;;;;;;;8.47;4.40;;;;;;;;;;5012845;28;20870;-72
2023/08/03 06:26:24;;;;;;;4.90;4.27;;;;;;;;;;5012788;28;20481;-72
2023/08/03 06:28:54;;;;;;;5.33;4.83;;;;;;;;;;5013081;28;20467;-72
2023/08/03 06:31:24;;;;;;;4.70;4.20;;;;;;;;;;5012668;28;20941;-72
2023/08/03 06:33:52;;;;;;;10.13;3.90;;;;;;;;;;5012779;28;20473;-72
2023/08/03 06:36:20;;;;;;;6.23;4.20;;;;;;;;;;5012693;28;20509;-72
2023/08/03 06:38:48;;;;;;;5.23;3.87;;;;;;;;;;5013542;28;20537;-71
2023/08/03 06:41:15;;;;;;;4.90;4.40;;;;;;;;;;5013564;28;20454;-72
2023/08/03 06:43:43;;;;;;;8.63;4.47;;;;;;;;;;5017113;28;20531;-72
2023/08/03 06:46:11;;;;;;;8.47;4.17;;;;;;;;;;5016558;28;20446;-71
2023/08/03 06:48:38;;;;;;;8.90;3.90;;;;;;;;;;5016188;28;20446;-72
2023/08/03 06:51:07;;;;;;;8.10;4.10;;;;;;;;;;5016985;28;20482;-71
2023/08/03 06:53:34;;;;;;;6.20;4.17;;;;;;;;;;5016507;28;20553;-72
2023/08/03 06:56:03;;;;;;;5.60;4.60;;;;;;;;;;5017100;28;20877;-72
2023/08/03 06:58:30;;;;;;;6.20;4.67;;;;;;;;;;5016417;28;20446;-72
2023/08/03 07:00:57;;;;;;;5.20;4.10;;;;;;;;;;5016057;28;20446;-73
2023/08/03 07:03:24;;;;;;;5.83;4.67;;;;;;;;;;5016218;28;20543;-73
2023/08/03 07:05:52;;;;;;;6.83;4.03;;;;;;;;;;5016992;28;20916;-73
2023/08/03 07:08:20;;;;;;;4.60;4.20;;;;;;;;;;5016243;28;20859;-73
2023/08/03 07:10:47;;;;;;;6.93;4.40;;;;;;;;;;5015868;28;20481;-73
2023/08/03 07:13:15;;;;;;;7.93;4.10;;;;;;;;;;5016062;28;20541;-72
2023/08/03 07:15:42;;;;;;;5.17;4.57;;;;;;;;;;5016433;28;20533;-73
2023/08/03 07:18:09;;;;;;;3.97;3.57;;;;;;;;;;5015939;28;20844;-73
2023/08/03 07:20:36;;;;;;;3.93;3.63;;;;;;;;;;5015708;28;20557;-72
2023/08/03 07:23:07;;;;;;;4.43;3.90;;;;;;;;;;5015795;28;20844;-73
2023/08/03 07:25:35;;;;;;;3.67;3.37;;;;;;;;;;5016115;28;20555;-74
2023/08/03 07:28:02;;;;;;;2.90;2.70;;;;;;;;;;5015487;28;20533;-74
2023/08/03 07:30:30;;;;;;;4.50;4.10;;;;;;;;;;5015509;28;20996;-74
2023/08/03 07:32:58;;;;;;;3.27;2.97;;;;;;;;;;5015988;28;20519;-74
2023/08/03 07:35:25;;;;;;;4.23;2.87;;;;;;;;;;5015923;28;20444;-74
2023/08/03 07:37:52;;;;;;;2.80;2.60;;;;;;;;;;5015324;28;20500;-74
2023/08/03 07:40:19;;;;;;;3.17;2.87;;;;;;;;;;5015028;28;20472;-74
2023/08/03 07:42:48;;;;;;;2.40;2.20;;;;;;;;;;5015239;28;20542;-74
2023/08/03 07:45:15;;;;;;;3.40;2.47;;;;;;;;;;5015062;28;20485;-74
2023/08/03 07:47:42;;;;;;;3.60;2.70;;;;;;;;;;5015104;28;20791;-75
2023/08/03 07:50:09;;;;;;;2.97;2.20;;;;;;;;;;5015145;28;20477;-75
2023/08/03 07:52:37;;;;;;;5.00;2.80;;;;;;;;;;5014799;28;20498;-75
2023/08/03 07:55:04;;;;;;;6.10;2.77;;;;;;;;;;5014914;28;20526;-74
2023/08/03 07:57:33;;;;;;;7.07;2.80;;;;;;;;;;5014947;28;20916;-74
2023/08/03 08:00:03;;;;;;;2.63;2.40;;;;;;;;;;5014759;28;20454;-75
2023/08/03 08:02:30;;;;;;;3.20;2.80;;;;;;;;;;5014655;28;20430;-74
2023/08/03 08:04:58;;;;;;;8.93;2.97;;;;;;;;;;5014675;28;20974;-74
2023/08/03 08:07:25;;;;;;;3.20;3.00;;;;;;;;;;5014551;28;20482;-75
2023/08/03 08:09:54;;;;;;;4.23;2.70;;;;;;;;;;5014821;28;20452;-74
2023/08/03 08:12:21;;;;;;;3.43;3.00;;;;;;;;;;5014573;28;20439;-74
2023/08/03 08:14:49;;;;;;;5.93;2.90;;;;;;;;;;5014509;28;20443;-74
2023/08/03 08:17:17;;;;;;;3.60;3.30;;;;;;;;;;5014679;28;20511;-74
2023/08/03 08:19:45;;;;;;;2.83;2.60;;;;;;;;;;5014645;28;20481;-74
2023/08/03 08:22:12;;;;;;;2.97;2.60;;;;;;;;;;5014718;28;20534;-73
2023/08/03 08:24:39;;;;;;;3.17;2.40;;;;;;;;;;5014429;28;20529;-74
2023/08/03 08:27:07;;;;;;;3.33;2.50;;;;;;;;;;5014979;28;20456;-74
2023/08/03 08:29:34;;;;;;;4.37;2.80;;;;;;;;;;5014414;28;20522;-74
2023/08/03 08:32:01;;;;;;;4.13;2.50;;;;;;;;;;5014366;28;20442;-74
2023/08/03 08:34:30;;;;;;;5.90;2.87;;;;;;;;;;5013895;28;20529;-74
2023/08/03 08:36:57;;;;;;;3.53;2.70;;;;;;;;;;5014765;28;20563;-74
2023/08/03 08:39:24;;;;;;;4.90;2.70;;;;;;;;;;5014471;28;20453;-74
2023/08/03 08:41:52;;;;;;;7.63;2.93;;;;;;;;;;5014625;28;20442;-74
2023/08/03 08:44:19;;;;;;;4.17;2.40;;;;;;;;;;5014356;28;20486;-74
2023/08/03 08:46:46;;;;;;;4.60;2.70;;;;;;;;;;5014285;28;20478;-74
2023/08/03 08:49:14;;;;;;;4.80;2.50;;;;;;;;;;5013668;28;20441;-74
2023/08/03 08:51:42;;;;;;;2.77;2.57;;;;;;;;;;5013881;28;20447;-74
2023/08/03 08:54:10;;;;;;;6.57;2.53;;;;;;;;;;5014271;28;20533;-74
2023/08/03 08:56:37;;;;;;;2.47;2.27;;;;;;;;;;5014339;28;20656;-74
2023/08/03 08:59:04;;;;;;;3.37;2.40;;;;;;;;;;5013977;28;20541;-74
2023/08/03 09:01:46;;;;;;;3.13;2.63;;;;;;;;;;5013932;28;20937;-74
2023/08/03 09:04:14;;;;;;;4.73;3.37;;;;;;;;;;5013931;28;20468;-74
2023/08/03 09:06:45;;;;;;;5.53;2.77;;;;;;;;;;5014408;28;20477;-73
2023/08/03 09:09:12;;;;;;;2.40;2.20;;;;;;;;;;5013705;28;20449;-71
2023/08/03 09:11:40;;;;;;;4.73;2.90;;;;;;;;;;5013637;28;20795;-72
2023/08/03 09:14:08;;;;;;;2.83;2.60;;;;;;;;;;5013257;28;20450;-71
2023/08/03 09:16:37;;;;;;;4.30;2.40;;;;;;;;;;5013577;28;20435;-72
2023/08/03 09:19:04;;;;;;;7.77;3.10;;;;;;;;;;5013567;28;20521;-72
2023/08/03 09:21:32;;;;;;;3.77;2.60;;;;;;;;;;5013239;28;20453;-72
2023/08/03 09:24:15;;;;;;;3.47;2.90;;;;;;;;;;5013450;28;20801;-72
2023/08/03 09:26:42;;;;;;;3.60;2.33;;;;;;;;;;5013149;28;20562;-71
2023/08/03 09:29:13;;;;;;;3.80;2.83;;;;;;;;;;5013355;28;20533;-74
2023/08/03 09:31:40;;;;;;;2.97;2.77;;;;;;;;;;5013686;28;20423;-74
2023/08/03 09:34:07;;;;;;;4.57;3.10;;;;;;;;;;5013365;28;21128;-74
2023/08/03 09:36:35;;;;;;;3.00;2.77;;;;;;;;;;5013435;28;20473;-73
2023/08/03 09:39:13;;;;;;;5.67;2.70;;;;;;;;;;5012895;28;20477;-72
2023/08/03 09:41:40;;;;;;;4.30;2.63;;;;;;;;;;5012950;28;20933;-72
2023/08/03 09:44:08;;;;;;;3.60;3.30;;;;;;;;;;5012920;28;20944;-72
2023/08/03 09:46:36;;;;;;;4.00;3.43;;;;;;;;;;5012876;28;20452;-73
2023/08/03 09:49:03;;;;;;;3.60;3.30;;;;;;;;;;5013606;28;20443;-73
2023/08/03 09:51:31;;;;;;;6.03;3.80;;;;;;;;;;5013191;28;20470;-72
2023/08/03 09:54:00;;;;;;;4.23;3.83;;;;;;;;;;5013094;28;20442;-72
2023/08/03 09:56:31;;;;;;;4.50;4.10;;;;;;;;;;5012729;28;20556;-73
2023/08/03 09:59:03;;;;;;;5.23;4.03;;;;;;;;;;5013199;28;20488;-72
2023/08/03 10:01:33;;;;;;;4.73;3.90;;;;;;;;;;5013205;28;20431;-73
2023/08/03 10:04:04;;;;;;;5.13;4.73;;;;;;;;;;5012698;28;20446;-72
2023/08/03 10:06:34;;;;;;;4.40;4.10;;;;;;;;;;5013316;28;20481;-72
2023/08/03 10:09:03;;;;;;;4.60;4.30;;;;;;;;;;5013006;28;20450;-73
2023/08/03 10:11:34;;;;;;;7.60;5.10;;;;;;;;;;5013429;28;20518;-72
2023/08/03 10:14:03;;;;;;;4.80;4.40;;;;;;;;;;5012611;28;20510;-72
2023/08/03 10:16:30;;;;;;;4.83;4.53;;;;;;;;;;5015935;28;20442;-72
2023/08/03 10:18:58;;;;;;;6.00;4.57;;;;;;;;;;5016916;28;20485;-71
2023/08/03 10:21:25;;;;;;;5.63;5.13;;;;;;;;;;5016572;28;20450;-72
2023/08/03 10:24:07;;;;;;;5.30;4.87;;;;;;;;;;5016932;28;20448;-72
2023/08/03 10:26:36;;;;;;;5.27;4.77;;;;;;;;;;5016965;28;20565;-73
2023/08/03 10:29:03;;;;;;;5.63;5.10;;;;;;;;;;5016652;28;20921;-72
2023/08/03 10:31:30;;;;;;;6.20;5.60;;;;;;;;;;5016662;28;20442;-72
2023/08/03 10:34:17;;;;;;;5.53;5.00;;;;;;;;;;5016388;28;21075;-72
2023/08/03 10:36:48;;;;;;;6.27;5.00;;;;;;;;;;5016481;28;20521;-72
2023/08/03 10:39:18;;;;;;;5.90;5.30;;;;;;;;;;5016743;28;20560;-72
2023/08/03 10:41:49;;;;;;;7.37;5.50;;;;;;;;;;5016306;28;20536;-72
2023/08/03 10:44:26;;;;;;;6.73;5.53;;;;;;;;;;5016640;28;20480;-72
2023/08/03 10:46:54;;;;;;;7.47;5.47;;;;;;;;;;5016211;28;20532;-72
2023/08/03 10:49:54;;;;;;;6.00;4.63;;;;;;;;;;5016599;28;20536;-72
2023/08/03 10:52:23;;;;;;;6.20;4.50;;;;;;;;;;4994626;28;20929;-72
2023/08/03 10:54:50;;;;;;;8.13;4.20;;;;;;;;;;4994170;28;21025;-72
2023/08/03 10:57:22;;;;;;;5.00;4.53;;;;;;;;;;5004091;28;20528;-72
2023/08/03 10:59:50;;;;;;;4.50;4.10;;;;;;;;;;5016168;28;20433;-72
2023/08/03 11:02:20;;;;;;;8.23;3.97;;;;;;;;;;5016025;28;20453;-72
2023/08/03 11:04:49;;;;;;;4.60;4.20;;;;;;;;;;5016777;28;20493;-72
2023/08/03 11:07:18;;;;;;;7.00;4.50;;;;;;;;;;5016234;28;20442;-72
2023/08/03 11:09:48;;;;;;;6.63;4.50;;;;;;;;;;5015907;28;20938;-73
2023/08/03 11:12:16;;;;;;;5.33;4.43;;;;;;;;;;5015820;28;21027;-71
2023/08/03 11:14:46;;;;;;;4.70;4.30;;;;;;;;;;5015702;28;20449;-72
2023/08/03 11:17:15;;;;;;;4.40;4.00;;;;;;;;;;5016058;28;20489;-71
2023/08/03 11:19:42;;;;;;;4.17;3.73;;;;;;;;;;5016063;28;20500;-72
2023/08/03 11:22:09;;;;;;;4.40;4.00;;;;;;;;;;5015568;28;20442;-71
2023/08/03 11:24:37;;;;;;;5.00;3.40;;;;;;;;;;5015760;28;20530;-72
2023/08/03 11:27:05;;;;;;;6.37;3.90;;;;;;;;;;5015536;28;20447;-72
2023/08/03 11:29:32;;;;;;;4.13;3.50;;;;;;;;;;5015805;28;20537;-72
2023/08/03 11:32:01;;;;;;;3.80;3.50;;;;;;;;;;5015588;28;20441;-72
2023/08/03 11:34:28;;;;;;;4.10;3.70;;;;;;;;;;5015715;28;20456;-74
2023/08/03 11:36:56;;;;;;;6.27;3.60;;;;;;;;;;5015358;28;20953;-74
2023/08/03 11:39:23;;;;;;;6.90;3.70;;;;;;;;;;5015530;28;20918;-73
2023/08/03 11:41:52;;;;;;;3.83;3.53;;;;;;;;;;5015050;28;20442;-72
2023/08/03 11:44:22;;;;;;;5.27;3.50;;;;;;;;;;5015560;28;20448;-76
2023/08/03 11:46:49;;;;;;;6.60;4.67;;;;;;;;;;5015343;28;20455;-73
2023/08/03 11:49:22;;;;;;;6.30;3.60;;;;;;;;;;5015540;28;20807;-74
2023/08/03 11:51:49;;;;;;;4.67;4.10;;;;;;;;;;5015519;28;20476;-75
2023/08/03 11:54:23;;;;;;;4.33;3.93;;;;;;;;;;5015207;28;20435;-75
2023/08/03 11:56:51;;;;;;;6.30;4.13;;;;;;;;;;5024314;28;20445;-74
2023/08/03 11:59:17;;;;;;;4.03;3.73;;;;;;;;;;5020719;28;21104;-72
2023/08/03 12:01:46;;;;;;;5.10;4.60;;;;;;;;;;5014127;28;20454;-73
2023/08/03 12:04:13;;;;;;;4.90;4.10;;;;;;;;;;5014274;28;20439;-73
2023/08/03 12:06:48;;;;;;;8.33;3.80;;;;;;;;;;5014141;28;21031;-73
2023/08/03 12:09:19;;;;;;;5.77;4.17;;;;;;;;;;5014580;28;20544;-73
2023/08/03 12:11:47;;;;;;;5.50;4.47;;;;;;;;;;5014512;28;20530;-73
2023/08/03 12:14:14;;;;;;;7.00;4.40;;;;;;;;;;5014225;28;21026;-73
2023/08/03 12:16:41;;;;;;;7.40;4.23;;;;;;;;;;5014366;28;20439;-73
2023/08/03 12:19:12;;;;;;;9.93;5.60;;;;;;;;;;5014141;28;21129;-74
2023/08/03 12:21:39;;;;;;;8.90;4.73;;;;;;;;;;5014701;28;20433;-73
2023/08/03 12:24:08;;;;;;;4.77;4.07;;;;;;;;;;5014543;28;20522;-74
2023/08/03 12:26:35;;;;;;;4.27;3.87;;;;;;;;;;5014262;28;21041;-74
2023/08/03 12:29:03;;;;;;;4.83;3.60;;;;;;;;;;5014203;28;20531;-74
2023/08/03 12:31:31;;;;;;;7.67;5.00;;;;;;;;;;5013760;28;20446;-74
2023/08/03 12:33:59;;;;;;;6.43;3.83;;;;;;;;;;5014264;28;20623;-74
2023/08/03 12:36:26;;;;;;;4.30;3.83;;;;;;;;;;5013903;28;20478;-73
2023/08/03 12:38:53;;;;;;;9.00;4.10;;;;;;;;;;5013077;28;20483;-74
2023/08/03 12:41:22;;;;;;;5.57;3.83;;;;;;;;;;5013996;28;20947;-74
2023/08/03 12:43:50;;;;;;;6.50;4.37;;;;;;;;;;5014221;28;20447;-73
2023/08/03 12:46:17;;;;;;;6.43;3.80;;;;;;;;;;5013965;28;20443;-74
2023/08/03 12:48:45;;;;;;;5.80;4.40;;;;;;;;;;5014004;28;20447;-74
2023/08/03 12:51:12;;;;;;;5.37;3.93;;;;;;;;;;5013832;28;20458;-75
2023/08/03 12:53:40;;;;;;;4.73;4.23;;;;;;;;;;5013837;28;20486;-75
2023/08/03 12:56:07;;;;;;;4.30;3.37;;;;;;;;;;5014024;28;20462;-76
2023/08/03 12:58:36;;;;;;;4.50;3.50;;;;;;;;;;5013454;28;20562;-75
2023/08/03 13:01:12;;;;;;;6.83;3.10;;;;;;;;;;5151653;27;20527;-75
2023/08/03 13:03:39;;;;;;;5.00;3.50;;;;;;;;;;5151779;27;20440;-75
2023/08/03 13:06:06;;;;;;;5.00;3.30;;;;;;;;;;5151530;27;20958;-74
2023/08/03 13:08:34;;;;;;;3.27;3.00;;;;;;;;;;5151539;27;20470;-74
2023/08/03 13:11:01;;;;;;;4.23;3.93;;;;;;;;;;5151159;27;20925;-74
2023/08/03 13:13:29;;;;;;;4.70;3.10;;;;;;;;;;5151632;27;20433;-73
2023/08/03 13:15:56;;;;;;;4.50;3.30;;;;;;;;;;5151687;27;20429;-74
2023/08/03 13:18:26;;;;;;;5.57;3.73;;;;;;;;;;5151356;27;20524;-73
2023/08/03 13:20:53;;;;;;;5.33;4.30;;;;;;;;;;5151518;27;20476;-74
2023/08/03 13:23:20;;;;;;;13.33;3.63;;;;;;;;;;5151629;27;20607;-74
2023/08/03 13:25:47;;;;;;;7.20;3.33;;;;;;;;;;5151508;27;20512;-74
2023/08/03 13:28:14;;;;;;;5.23;3.53;;;;;;;;;;5151015;27;20528;-75
2023/08/03 13:30:42;;;;;;;13.33;3.63;;;;;;;;;;5151631;27;20560;-74
2023/08/03 13:33:09;;;;;;;2.70;2.20;;;;;;;;;;5151081;27;20473;-75
2023/08/03 13:35:37;;;;;;;7.80;2.30;;;;;;;;;;5150912;27;20949;-75
2023/08/03 13:38:05;;;;;;;3.60;1.97;;;;;;;;;;5150804;27;20536;-73
2023/08/03 13:40:32;;;;;;;3.97;1.63;;;;;;;;;;5151002;27;20478;-73
2023/08/03 13:42:59;;;;;;;2.07;1.77;;;;;;;;;;5150728;27;20533;-73
2023/08/03 13:45:26;;;;;;;4.17;2.10;;;;;;;;;;5151295;27;20513;-73
2023/08/03 13:47:54;;;;;;;2.70;1.80;;;;;;;;;;5150226;27;20524;-74
2023/08/03 13:50:21;;;;;;;2.10;1.90;;;;;;;;;;5150296;27;20437;-74
2023/08/03 13:52:49;;;;;;;4.40;2.40;;;;;;;;;;5150759;27;20945;-74
2023/08/03 13:55:17;;;;;;;2.97;2.70;;;;;;;;;;5150645;27;20522;-75
2023/08/03 13:57:44;;;;;;;5.37;2.43;;;;;;;;;;5150213;27;20943;-75
2023/08/03 14:00:12;;;;;;;3.93;2.50;;;;;;;;;;5150283;27;20516;-75
2023/08/03 14:02:39;;;;;;;2.70;2.10;;;;;;;;;;5150600;27;20448;-75
2023/08/03 14:05:07;;;;;;;9.40;3.30;;;;;;;;;;5150268;27;20520;-74
2023/08/03 14:07:34;;;;;;;4.53;2.70;;;;;;;;;;5150547;27;20528;-76
2023/08/03 14:10:06;;;;;;;2.53;2.33;;;;;;;;;;5150475;27;20449;-77
2023/08/03 14:12:33;;;;;;;3.33;2.33;;;;;;;;;;5136031;27;20424;-75
2023/08/03 14:15:00;;;;;;;3.00;2.70;;;;;;;;;;5136349;27;20442;-76
2023/08/03 14:17:28;;;;;;;3.50;2.60;;;;;;;;;;5136147;27;20521;-76
2023/08/03 14:19:55;;;;;;;4.03;2.33;;;;;;;;;;5135967;27;20462;-76
2023/08/03 14:22:23;;;;;;;6.23;2.63;;;;;;;;;;5136720;27;20474;-76
2023/08/03 14:24:50;;;;;;;2.73;2.53;;;;;;;;;;5136481;27;20517;-75
2023/08/03 14:27:18;;;;;;;2.67;2.27;;;;;;;;;;5136250;27;20470;-75
2023/08/03 14:29:46;;;;;;;3.70;2.10;;;;;;;;;;5135777;27;20809;-75
2023/08/03 14:32:13;;;;;;;3.00;2.70;;;;;;;;;;5135736;27;20534;-73
2023/08/03 14:34:40;;;;;;;2.10;2.00;;;;;;;;;;5136510;27;20546;-75
2023/08/03 14:37:08;;;;;;;4.90;2.40;;;;;;;;;;5136185;27;20790;-74
2023/08/03 14:39:35;;;;;;;2.27;1.87;;;;;;;;;;5135540;27;20582;-72
2023/08/03 14:42:02;;;;;;;6.90;2.30;;;;;;;;;;5136246;27;20519;-71
2023/08/03 14:44:31;;;;;;;4.63;2.53;;;;;;;;;;5135983;27;20437;-71
2023/08/03 14:46:58;;;;;;;3.37;2.50;;;;;;;;;;5136195;27;20532;-71